Time;durP1;ratioP1;P1;durP2;ratioP2;P2;SDS_P1;SDS_P2;PMS_P1;PMS_P2;Temp;Humidity;BMP_temperature;BMP_pressure;BME280_temperature;BME280_humidity;BME280_pressure;Samples;Min_cycle;Max_cycle;Signal;HPM_P1;HPM_P2
2022/10/27 00:00:09;;;;;;;7.43;2.37;;;14.80;99.90;;;;;;5072113;28;20234;-78
2022/10/27 00:02:36;;;;;;;5.07;2.43;;;14.80;99.90;;;;;;5075101;28;20198;-79
2022/10/27 00:05:04;;;;;;;8.57;2.80;;;14.80;99.90;;;;;;5064608;28;20194;-79
2022/10/27 00:07:31;;;;;;;10.60;3.00;;;14.80;99.90;;;;;;5054456;28;20772;-79
2022/10/27 00:09:58;;;;;;;8.47;2.90;;;14.80;99.90;;;;;;5055624;28;20214;-78
2022/10/27 00:12:25;;;;;;;6.63;3.20;;;14.80;99.90;;;;;;5074773;28;20308;-80
2022/10/27 00:14:52;;;;;;;4.57;2.37;;;14.80;99.90;;;;;;5073679;28;20288;-79
2022/10/27 00:17:19;;;;;;;6.40;2.40;;;14.80;99.90;;;;;;5075066;28;20288;-78
2022/10/27 00:19:45;;;;;;;11.70;3.60;;;14.80;99.90;;;;;;5074555;28;20201;-80
2022/10/27 00:22:14;;;;;;;9.10;3.10;;;14.80;99.90;;;;;;5072292;28;20205;-78
2022/10/27 00:24:41;;;;;;;7.87;3.70;;;14.80;99.90;;;;;;5073983;28;20210;-80
2022/10/27 00:27:08;;;;;;;10.73;4.10;;;14.80;99.90;;;;;;5069128;28;20206;-79
2022/10/27 00:29:35;;;;;;;8.40;3.83;;;14.80;99.90;;;;;;5054470;28;20210;-79
2022/10/27 00:32:02;;;;;;;10.50;3.40;;;14.80;99.90;;;;;;5055457;28;20201;-79
2022/10/27 00:34:29;;;;;;;6.20;2.97;;;14.80;99.90;;;;;;5054139;28;20362;-79
2022/10/27 00:36:56;;;;;;;6.27;3.47;;;14.80;99.90;;;;;;5054698;28;20790;-79
2022/10/27 00:39:24;;;;;;;11.97;4.67;;;14.80;99.90;;;;;;5054825;28;20478;-79
2022/10/27 00:41:51;;;;;;;7.83;3.63;;;14.80;99.90;;;;;;5054257;28;20198;-80
2022/10/27 00:44:39;;;;;;;6.00;3.60;;;14.80;99.90;;;;;;5066210;28;20209;-80
2022/10/27 00:47:12;;;;;;;9.00;3.60;;;14.80;99.90;;;;;;5068437;28;20235;-79
2022/10/27 00:49:44;;;;;;;9.03;3.37;;;14.80;99.90;;;;;;5060312;28;20194;-80
2022/10/27 00:52:16;;;;;;;6.53;3.27;;;14.80;99.90;;;;;;5055502;28;20589;-79
2022/10/27 00:54:44;;;;;;;6.70;3.80;;;14.80;99.90;;;;;;5055752;28;20308;-79
2022/10/27 00:57:12;;;;;;;7.03;3.67;;;14.80;99.90;;;;;;5055187;28;20224;-78
2022/10/27 00:59:39;;;;;;;7.23;3.20;;;14.80;99.90;;;;;;5068074;28;20205;-80
2022/10/27 01:02:09;;;;;;;6.70;3.87;;;14.80;99.90;;;;;;5072614;28;20219;-79
2022/10/27 01:04:43;;;;;;;4.70;3.20;;;14.80;99.90;;;;;;5074276;28;20190;-81
2022/10/27 01:07:10;;;;;;;6.25;3.08;;;14.80;99.90;;;;;;5073517;28;20286;-80
2022/10/27 01:09:39;;;;;;;10.02;4.60;;;14.80;99.90;;;;;;5066873;28;20206;-80
2022/10/27 01:12:07;;;;;;;7.75;4.00;;;14.80;99.90;;;;;;5053824;28;20208;-80
2022/10/27 01:14:34;;;;;;;9.73;4.50;;;14.80;99.90;;;;;;5036452;28;20204;-79
2022/10/27 01:17:13;;;;;;;6.90;3.77;;;14.80;99.90;;;;;;5068800;28;20633;-79
2022/10/27 01:20:06;;;;;;;7.67;3.77;;;14.80;99.90;;;;;;5062357;28;20213;-79
2022/10/27 01:22:39;;;;;;;7.23;3.80;;;14.80;99.90;;;;;;5073628;28;20243;-79
2022/10/27 01:25:32;;;;;;;10.10;4.03;;;14.80;99.90;;;;;;5072972;28;20197;-80
2022/10/27 01:28:23;;;;;;;8.10;3.60;;;14.80;99.90;;;;;;5053598;28;20186;-80
2022/10/27 01:31:08;;;;;;;7.67;4.13;;;14.80;99.90;;;;;;5054096;28;20225;-79
2022/10/27 01:33:42;;;;;;;8.40;4.75;;;14.70;99.90;;;;;;5051618;28;20486;-80
2022/10/27 01:36:15;;;;;;;12.00;5.50;;;14.70;99.90;;;;;;5053276;28;20206;-79
2022/10/27 01:38:49;;;;;;;9.43;5.50;;;14.70;99.90;;;;;;5053124;28;20488;-79
2022/10/27 01:41:21;;;;;;;6.95;4.53;;;14.60;99.90;;;;;;5064270;28;20205;-79
2022/10/27 01:43:52;;;;;;;7.63;5.53;;;14.60;99.90;;;;;;5073346;28;20200;-79
2022/10/27 01:46:20;;;;;;;9.00;6.07;;;14.60;99.90;;;;;;5068366;28;20203;-79
2022/10/27 01:48:48;;;;;;;10.47;6.03;;;14.60;99.90;;;;;;5053216;28;20586;-80
2022/10/27 01:51:15;;;;;;;10.60;5.82;;;14.60;99.90;;;;;;5063296;28;20628;-79
2022/10/27 01:53:46;;;;;;;10.80;5.87;;;14.60;99.90;;;;;;5071856;28;20209;-81
2022/10/27 01:56:40;;;;;;;15.87;7.20;;;14.50;99.90;;;;;;5052857;28;20249;-80
2022/10/27 01:59:20;;;;;;;9.70;6.00;;;14.60;99.90;;;;;;5064628;28;20209;-79
2022/10/27 02:01:58;;;;;;;8.93;6.37;;;14.60;99.90;;;;;;5071291;28;20625;-80
2022/10/27 02:04:38;;;;;;;10.13;6.50;;;14.60;99.90;;;;;;5052847;28;20201;-80
2022/10/27 02:07:11;;;;;;;10.47;6.43;;;14.50;99.90;;;;;;5053097;28;20324;-80
2022/10/27 02:09:43;;;;;;;10.03;6.83;;;14.50;99.90;;;;;;5072792;28;20504;-77
2022/10/27 02:12:16;;;;;;;12.00;7.27;;;14.50;99.90;;;;;;5072259;28;20300;-79
2022/10/27 02:14:44;;;;;;;10.20;6.77;;;14.50;99.90;;;;;;5071757;28;20197;-79
2022/10/27 02:17:14;;;;;;;12.93;7.47;;;14.50;99.90;;;;;;5067335;28;20509;-80
2022/10/27 02:19:44;;;;;;;10.47;6.40;;;14.50;99.90;;;;;;5066881;28;20209;-80
2022/10/27 02:22:12;;;;;;;13.33;6.93;;;14.50;99.90;;;;;;5072316;28;20223;-79
2022/10/27 02:24:39;;;;;;;9.73;7.27;;;14.50;99.90;;;;;;5058431;28;20213;-79
2022/10/27 02:27:12;;;;;;;9.25;6.90;;;14.50;99.90;;;;;;5051630;28;20203;-79
2022/10/27 02:29:42;;;;;;;11.20;7.13;;;14.50;99.90;;;;;;5052508;28;20192;-78
2022/10/27 02:32:14;;;;;;;9.17;6.83;;;14.40;99.90;;;;;;5052498;28;20737;-79
2022/10/27 02:34:42;;;;;;;11.87;6.17;;;14.40;99.90;;;;;;5053318;28;20198;-77
2022/10/27 02:37:10;;;;;;;11.53;7.13;;;14.40;99.90;;;;;;5051795;28;20229;-78
2022/10/27 02:39:37;;;;;;;9.30;7.10;;;14.40;99.90;;;;;;5052342;28;20198;-79
2022/10/27 02:42:05;;;;;;;14.50;8.70;;;14.40;99.90;;;;;;5051903;28;20198;-79
2022/10/27 02:44:31;;;;;;;10.17;6.73;;;14.40;99.90;;;;;;5066882;28;20219;-80
2022/10/27 02:46:58;;;;;;;10.13;6.60;;;14.30;99.90;;;;;;5071780;28;20194;-77
2022/10/27 02:49:26;;;;;;;9.60;6.87;;;14.30;99.90;;;;;;5071277;28;20203;-80
2022/10/27 02:51:53;;;;;;;12.40;8.27;;;14.30;99.90;;;;;;5072008;28;20200;-79
2022/10/27 02:54:20;;;;;;;12.03;8.10;;;14.30;99.90;;;;;;5052455;28;20277;-79
2022/10/27 02:56:47;;;;;;;12.77;8.07;;;14.30;99.90;;;;;;5052526;28;20309;-80
2022/10/27 02:59:14;;;;;;;10.37;7.67;;;14.30;99.90;;;;;;5051886;28;20198;-78
2022/10/27 03:01:41;;;;;;;12.87;8.30;;;14.30;99.90;;;;;;5052083;28;20208;-80
2022/10/27 03:04:08;;;;;;;12.40;7.73;;;14.30;99.90;;;;;;5051976;28;20197;-80
2022/10/27 03:06:37;;;;;;;13.63;8.77;;;14.30;99.90;;;;;;5064064;28;20288;-80
2022/10/27 03:09:04;;;;;;;14.97;8.70;;;14.40;99.90;;;;;;5071400;28;20193;-81
2022/10/27 03:11:31;;;;;;;12.60;9.30;;;14.40;99.90;;;;;;5056565;28;20214;-79
2022/10/27 03:13:58;;;;;;;15.53;8.93;;;14.40;99.90;;;;;;5051698;28;20194;-80
2022/10/27 03:16:25;;;;;;;11.30;8.50;;;14.40;99.90;;;;;;5051806;28;20210;-79
2022/10/27 03:18:52;;;;;;;12.37;8.67;;;14.40;99.90;;;;;;5051786;28;20492;-81
2022/10/27 03:21:19;;;;;;;15.50;9.03;;;14.40;99.90;;;;;;5054636;28;20208;-79
2022/10/27 03:23:47;;;;;;;12.10;8.70;;;14.40;99.90;;;;;;5071092;28;20574;-81
2022/10/27 03:26:14;;;;;;;16.63;9.50;;;14.40;99.90;;;;;;5076218;28;20276;-81
2022/10/27 03:28:40;;;;;;;15.40;8.63;;;14.40;99.90;;;;;;5062046;28;20206;-80
2022/10/27 03:31:07;;;;;;;17.47;9.63;;;14.40;99.90;;;;;;5054857;28;20288;-80
2022/10/27 03:33:34;;;;;;;11.07;8.60;;;14.40;99.90;;;;;;5056802;28;20634;-80
2022/10/27 03:36:01;;;;;;;15.20;9.05;;;14.40;99.90;;;;;;5055617;28;20206;-79
2022/10/27 03:38:28;;;;;;;16.37;9.17;;;14.40;99.90;;;;;;5055380;28;20194;-78
2022/10/27 03:40:56;;;;;;;19.90;10.00;;;14.40;99.90;;;;;;5055459;28;20213;-80
2022/10/27 03:43:23;;;;;;;14.20;9.10;;;14.30;99.90;;;;;;5057244;28;20669;-78
2022/10/27 03:45:51;;;;;;;14.23;9.40;;;14.30;99.90;;;;;;5054609;28;20234;-79
2022/10/27 03:48:18;;;;;;;16.13;8.60;;;14.30;99.90;;;;;;5055718;28;20605;-79
2022/10/27 03:50:46;;;;;;;12.37;8.40;;;14.30;99.90;;;;;;5055291;28;20276;-79
2022/10/27 03:53:14;;;;;;;13.70;7.80;;;14.30;99.90;;;;;;5055679;28;20202;-80
2022/10/27 03:55:41;;;;;;;11.20;8.00;;;14.30;99.90;;;;;;5075121;28;20221;-79
2022/10/27 03:58:11;;;;;;;14.87;9.83;;;14.30;99.90;;;;;;5074501;28;20264;-80
2022/10/27 04:00:39;;;;;;;12.73;9.00;;;14.30;99.90;;;;;;5073848;28;20209;-78
2022/10/27 04:03:06;;;;;;;16.03;9.23;;;14.30;99.90;;;;;;5075107;28;20304;-78
2022/10/27 04:05:33;;;;;;;13.30;9.00;;;14.30;99.90;;;;;;5073860;28;20205;-81
2022/10/27 04:08:00;;;;;;;13.53;8.97;;;14.30;99.90;;;;;;5054635;28;20234;-80
2022/10/27 04:10:27;;;;;;;12.97;8.83;;;14.30;99.90;;;;;;5066461;28;20484;-79
2022/10/27 04:12:56;;;;;;;12.97;7.97;;;14.30;99.90;;;;;;5074644;28;20197;-78
2022/10/27 04:15:26;;;;;;;13.90;8.53;;;14.30;99.90;;;;;;5064637;28;20292;-81
2022/10/27 04:17:53;;;;;;;13.73;8.43;;;14.30;99.90;;;;;;5074603;28;20217;-78
2022/10/27 04:20:20;;;;;;;11.33;7.57;;;14.30;99.90;;;;;;5074281;28;20208;-79
2022/10/27 04:22:47;;;;;;;15.53;8.70;;;14.30;99.90;;;;;;5074066;28;20217;-79
2022/10/27 04:25:14;;;;;;;12.97;8.67;;;14.40;99.90;;;;;;5073227;28;20217;-76
2022/10/27 04:27:41;;;;;;;11.70;7.57;;;14.30;99.90;;;;;;5074159;28;20556;-79
2022/10/27 04:30:09;;;;;;;12.47;8.40;;;14.30;99.90;;;;;;5074722;28;20198;-77
2022/10/27 04:32:37;;;;;;;11.87;8.27;;;14.30;99.90;;;;;;5074471;28;20197;-79
2022/10/27 04:35:05;;;;;;;9.80;8.30;;;14.40;99.90;;;;;;5073326;28;20206;-79
2022/10/27 04:37:32;;;;;;;9.77;7.87;;;14.30;99.90;;;;;;5059977;28;20225;-78
2022/10/27 04:39:59;;;;;;;16.63;8.30;;;14.40;99.90;;;;;;5054436;28;20655;-78
2022/10/27 04:42:26;;;;;;;12.83;8.13;;;14.30;99.90;;;;;;5053754;28;20202;-80
2022/10/27 04:44:53;;;;;;;10.70;6.90;;;14.30;99.90;;;;;;5066092;28;20197;-80
2022/10/27 04:47:20;;;;;;;11.63;8.30;;;14.30;99.90;;;;;;5070619;28;20193;-78
2022/10/27 04:49:48;;;;;;;11.80;7.83;;;14.40;99.90;;;;;;5074360;28;20606;-79
2022/10/27 04:52:15;;;;;;;14.77;7.60;;;14.40;99.90;;;;;;5074055;28;20597;-78
2022/10/27 04:54:42;;;;;;;15.40;7.90;;;14.40;99.90;;;;;;5073706;28;20217;-79
2022/10/27 04:57:09;;;;;;;12.60;7.50;;;14.40;99.90;;;;;;5074660;28;20223;-80
2022/10/27 04:59:35;;;;;;;14.83;6.87;;;14.40;99.90;;;;;;5074114;28;20205;-77
2022/10/27 05:02:02;;;;;;;12.97;7.27;;;14.40;99.90;;;;;;5060436;28;20217;-79
2022/10/27 05:04:29;;;;;;;12.97;7.27;;;14.40;99.90;;;;;;5074123;28;20204;-79
2022/10/27 05:06:57;;;;;;;9.50;6.90;;;14.30;99.90;;;;;;5074359;28;20263;-78
2022/10/27 05:09:24;;;;;;;9.97;7.30;;;14.40;99.90;;;;;;5073673;28;20196;-78
2022/10/27 05:11:51;;;;;;;13.30;7.47;;;14.40;99.90;;;;;;5067885;28;20201;-78
2022/10/27 05:14:18;;;;;;;12.27;7.40;;;14.40;99.90;;;;;;5073054;28;20236;-77
2022/10/27 05:16:45;;;;;;;14.13;7.47;;;14.30;99.90;;;;;;5073519;28;20609;-80
2022/10/27 05:19:11;;;;;;;15.30;7.70;;;14.30;99.90;;;;;;5072913;28;20205;-79
2022/10/27 05:21:38;;;;;;;17.93;7.20;;;14.30;99.90;;;;;;5073859;28;20205;-78
2022/10/27 05:24:07;;;;;;;12.53;7.23;;;14.30;99.90;;;;;;5072248;28;20205;-78
2022/10/27 05:26:34;;;;;;;14.27;7.40;;;14.30;99.90;;;;;;5073973;28;20613;-78
2022/10/27 05:29:01;;;;;;;13.77;7.37;;;14.30;99.90;;;;;;5073681;28;20205;-78
2022/10/27 05:31:28;;;;;;;9.60;6.27;;;14.30;99.90;;;;;;5073219;28;20201;-79
2022/10/27 05:33:55;;;;;;;9.93;6.43;;;14.20;99.90;;;;;;5061144;28;20532;-78
2022/10/27 05:36:22;;;;;;;9.73;6.90;;;14.20;99.90;;;;;;5073022;28;20616;-77
2022/10/27 05:38:49;;;;;;;11.43;6.53;;;14.20;99.90;;;;;;5073224;28;20197;-79
2022/10/27 05:41:18;;;;;;;9.73;6.00;;;14.20;99.90;;;;;;5071616;28;20559;-79
2022/10/27 05:43:44;;;;;;;9.43;6.37;;;14.20;99.90;;;;;;5073057;28;20591;-79
2022/10/27 05:46:11;;;;;;;10.60;6.60;;;14.20;99.90;;;;;;5073349;28;20203;-80
2022/10/27 05:48:38;;;;;;;13.03;7.10;;;14.20;99.90;;;;;;5062698;28;20297;-79
2022/10/27 05:51:05;;;;;;;9.57;6.40;;;14.20;99.90;;;;;;5051858;28;20576;-79
2022/10/27 05:53:32;;;;;;;14.93;6.53;;;14.20;99.90;;;;;;5052986;28;20500;-78
2022/10/27 05:55:59;;;;;;;11.90;6.10;;;14.20;99.90;;;;;;5054067;28;20198;-80
2022/10/27 05:58:27;;;;;;;14.17;7.07;;;14.20;99.90;;;;;;5052850;28;20230;-79
2022/10/27 06:00:57;;;;;;;16.07;6.87;;;14.20;99.90;;;;;;5053463;28;20217;-79
2022/10/27 06:03:25;;;;;;;11.87;6.97;;;14.20;99.90;;;;;;5053181;28;20762;-79
2022/10/27 06:05:53;;;;;;;14.80;6.83;;;14.20;99.90;;;;;;5053502;28;20201;-79
2022/10/27 06:08:20;;;;;;;9.07;6.50;;;14.20;99.90;;;;;;5053120;28;20247;-79
2022/10/27 06:10:47;;;;;;;8.77;5.70;;;14.20;99.90;;;;;;5056112;28;20590;-78
2022/10/27 06:13:14;;;;;;;11.80;6.63;;;14.20;99.90;;;;;;5066449;28;20209;-79
2022/10/27 06:15:42;;;;;;;11.23;6.27;;;14.20;99.90;;;;;;5072857;28;20284;-79
2022/10/27 06:18:09;;;;;;;10.20;5.97;;;14.10;99.90;;;;;;5070437;28;20224;-78
2022/10/27 06:20:36;;;;;;;10.80;5.77;;;14.10;99.90;;;;;;5072387;28;20229;-78
2022/10/27 06:23:03;;;;;;;12.57;6.53;;;14.10;99.90;;;;;;5072447;28;20197;-79
2022/10/27 06:25:30;;;;;;;8.37;6.03;;;14.10;99.90;;;;;;5071943;28;20201;-79
2022/10/27 06:27:57;;;;;;;14.73;6.47;;;14.10;99.90;;;;;;5053379;28;20292;-80
2022/10/27 06:30:24;;;;;;;10.10;6.03;;;14.10;99.90;;;;;;5052610;28;20221;-79
2022/10/27 06:32:52;;;;;;;11.53;5.87;;;14.10;99.90;;;;;;5052331;28;20539;-79
2022/10/27 06:35:19;;;;;;;12.13;5.93;;;14.10;99.90;;;;;;5052381;28;20501;-79
2022/10/27 06:37:47;;;;;;;9.77;6.10;;;14.10;99.90;;;;;;5058402;28;20229;-80
2022/10/27 06:40:16;;;;;;;9.20;5.83;;;14.10;99.90;;;;;;5071611;28;20204;-79
2022/10/27 06:42:43;;;;;;;10.10;5.60;;;14.10;99.90;;;;;;5072354;28;20194;-80
2022/10/27 06:45:10;;;;;;;9.70;6.00;;;14.10;99.90;;;;;;5053292;28;20296;-79
2022/10/27 06:47:37;;;;;;;9.77;5.30;;;14.10;99.90;;;;;;5051871;28;20281;-80
2022/10/27 06:50:07;;;;;;;11.20;5.47;;;14.10;99.90;;;;;;5068785;28;20201;-80
2022/10/27 06:52:36;;;;;;;10.67;5.10;;;14.10;99.90;;;;;;5071907;28;20202;-80
2022/10/27 06:55:03;;;;;;;10.07;5.00;;;14.10;99.90;;;;;;5064711;28;20239;-81
2022/10/27 06:57:38;;;;;;;7.73;4.73;;;14.10;99.90;;;;;;5060754;28;20308;-82
2022/10/27 07:00:06;;;;;;;10.53;5.47;;;14.10;99.90;;;;;;5052289;28;20205;-81
2022/10/27 07:02:33;;;;;;;8.77;5.00;;;14.10;99.90;;;;;;5062735;28;20371;-81
2022/10/27 07:05:00;;;;;;;9.77;4.90;;;14.10;99.90;;;;;;5069923;28;20197;-82
2022/10/27 07:07:28;;;;;;;8.77;4.93;;;14.10;99.90;;;;;;5061386;28;20225;-79
2022/10/27 07:09:55;;;;;;;7.67;4.83;;;14.10;99.90;;;;;;5063515;28;20354;-79
2022/10/27 07:12:22;;;;;;;6.27;4.13;;;14.20;99.90;;;;;;5052453;28;20781;-79
2022/10/27 07:14:49;;;;;;;5.70;4.20;;;14.20;99.90;;;;;;5052952;28;20551;-79
2022/10/27 07:17:16;;;;;;;8.10;4.80;;;14.20;99.90;;;;;;5052894;28;20221;-79
2022/10/27 07:19:43;;;;;;;6.83;4.20;;;14.20;99.90;;;;;;5051709;28;20204;-78
2022/10/27 07:22:10;;;;;;;10.13;4.33;;;14.30;99.90;;;;;;5061302;28;20209;-79
2022/10/27 07:24:38;;;;;;;7.37;4.43;;;14.30;99.90;;;;;;5071481;28;20209;-79
2022/10/27 07:27:05;;;;;;;7.00;3.97;;;14.30;99.90;;;;;;5069549;28;20292;-79
2022/10/27 07:29:32;;;;;;;10.47;3.70;;;14.30;99.90;;;;;;5067882;28;20284;-79
2022/10/27 07:31:59;;;;;;;8.80;3.67;;;14.40;99.90;;;;;;5065096;28;20205;-79
2022/10/27 07:34:26;;;;;;;6.67;3.67;;;14.40;99.90;;;;;;5061815;28;20202;-78
2022/10/27 07:36:53;;;;;;;7.43;3.30;;;14.50;99.90;;;;;;5069915;28;20205;-78
2022/10/27 07:39:19;;;;;;;9.07;3.30;;;14.50;99.90;;;;;;5051602;28;20648;-77
2022/10/27 07:41:48;;;;;;;6.33;3.10;;;14.60;99.90;;;;;;5069904;28;20276;-78
2022/10/27 07:44:14;;;;;;;8.90;2.60;;;14.70;99.90;;;;;;5051547;28;20289;-78
2022/10/27 07:46:41;;;;;;;8.03;3.23;;;14.70;99.90;;;;;;5068788;28;20621;-78
2022/10/27 07:49:08;;;;;;;10.47;3.40;;;14.80;99.90;;;;;;5060770;28;20225;-80
2022/10/27 07:51:35;;;;;;;5.20;3.30;;;14.90;99.90;;;;;;5058971;28;20203;-79
2022/10/27 07:54:02;;;;;;;5.27;2.77;;;14.90;99.90;;;;;;5054726;28;20226;-79
2022/10/27 07:56:29;;;;;;;6.87;3.00;;;15.00;99.90;;;;;;5066549;28;20284;-78
2022/10/27 07:58:58;;;;;;;5.17;3.00;;;15.00;99.90;;;;;;5070236;28;20340;-79
2022/10/27 08:01:25;;;;;;;5.77;2.60;;;15.10;99.90;;;;;;5071544;28;20193;-78
2022/10/27 08:03:52;;;;;;;5.23;2.53;;;15.20;99.90;;;;;;5050947;28;20209;-78
2022/10/27 08:06:19;;;;;;;6.50;2.50;;;15.20;99.90;;;;;;5065285;28;20243;-79
2022/10/27 08:08:46;;;;;;;4.47;2.60;;;15.30;99.90;;;;;;5069351;28;20182;-78
2022/10/27 08:11:13;;;;;;;4.10;2.33;;;15.30;99.90;;;;;;5069884;28;20245;-79
2022/10/27 08:13:39;;;;;;;8.23;2.20;;;15.40;99.90;;;;;;5065207;28;20194;-78
2022/10/27 08:16:08;;;;;;;4.30;2.20;;;15.50;99.90;;;;;;5068944;28;20210;-79
2022/10/27 08:18:35;;;;;;;4.47;1.90;;;15.50;99.90;;;;;;5066651;28;20224;-80
2022/10/27 08:21:04;;;;;;;7.10;3.17;;;15.50;99.90;;;;;;5062760;28;20224;-80
2022/10/27 08:23:31;;;;;;;8.60;2.95;;;15.60;99.90;;;;;;5054595;28;20210;-79
2022/10/27 08:25:58;;;;;;;4.43;1.90;;;15.60;99.90;;;;;;5053706;28;20199;-79
2022/10/27 08:28:25;;;;;;;4.43;2.00;;;15.70;99.90;;;;;;5074369;28;20232;-79
2022/10/27 08:30:52;;;;;;;5.85;2.05;;;15.70;99.90;;;;;;5074470;28;20205;-78
2022/10/27 08:33:21;;;;;;;3.60;1.80;;;15.80;99.90;;;;;;5072846;28;20208;-80
2022/10/27 08:35:49;;;;;;;2.40;1.70;;;15.80;99.90;;;;;;5073557;28;20201;-80
2022/10/27 08:38:17;;;;;;;7.47;2.15;;;15.80;99.90;;;;;;5072167;28;20225;-80
2022/10/27 08:40:56;;;;;;;3.63;2.03;;;15.90;99.90;;;;;;5073830;28;20205;-80
2022/10/27 08:43:49;;;;;;;4.85;2.10;;;15.90;99.90;;;;;;5068036;28;20236;-82
2022/10/27 08:46:25;;;;;;;3.78;1.92;;;16.00;99.90;;;;;;5067199;28;20204;-78
2022/10/27 08:48:56;;;;;;;3.45;2.15;;;16.00;99.90;;;;;;5060250;28;20201;-79
2022/10/27 08:51:25;;;;;;;3.95;1.98;;;16.00;99.90;;;;;;5074316;28;20312;-79
2022/10/27 08:53:54;;;;;;;3.83;1.95;;;16.10;99.90;;;;;;5055449;28;20233;-83
2022/10/27 08:56:23;;;;;;;3.88;2.38;;;16.10;99.90;;;;;;5057290;28;20197;-79
2022/10/27 08:58:50;;;;;;;5.15;1.50;;;16.10;99.90;;;;;;5072033;28;20231;-79
2022/10/27 09:01:31;;;;;;;3.85;1.73;;;16.20;99.90;;;;;;5065660;28;20213;-80
2022/10/27 09:04:15;;;;;;;2.78;1.73;;;16.20;99.90;;;;;;5057580;28;20201;-79
2022/10/27 09:06:56;;;;;;;8.07;2.20;;;16.20;99.90;;;;;;5053362;28;20328;-80
2022/10/27 09:09:31;;;;;;;6.93;2.15;;;16.20;99.90;;;;;;5055314;28;20565;-79
2022/10/27 09:12:10;;;;;;;4.47;1.92;;;16.30;99.90;;;;;;5058269;28;20202;-79
2022/10/27 09:15:02;;;;;;;6.97;2.10;;;16.30;99.90;;;;;;5053412;28;20201;-79
2022/10/27 09:17:35;;;;;;;3.03;1.67;;;16.40;99.90;;;;;;5056351;28;20216;-79
2022/10/27 09:20:07;;;;;;;2.83;1.85;;;16.40;99.90;;;;;;5065662;28;20515;-80
2022/10/27 09:22:38;;;;;;;4.60;2.00;;;16.50;99.90;;;;;;5063182;28;20198;-78
2022/10/27 09:25:07;;;;;;;6.03;2.13;;;16.50;99.90;;;;;;5073927;28;20205;-79
2022/10/27 09:27:35;;;;;;;8.18;2.25;;;16.60;99.90;;;;;;5068090;28;20208;-80
2022/10/27 09:30:05;;;;;;;4.53;1.80;;;16.70;99.90;;;;;;5053107;28;20230;-78
2022/10/27 09:32:34;;;;;;;8.07;2.45;;;16.80;99.90;;;;;;5055302;28;20816;-79
2022/10/27 09:35:10;;;;;;;4.95;2.15;;;16.80;99.90;;;;;;5073170;28;20208;-79
2022/10/27 09:37:39;;;;;;;3.17;1.85;;;16.90;99.90;;;;;;5067213;28;20205;-81
2022/10/27 09:40:12;;;;;;;5.72;1.45;;;17.00;99.90;;;;;;5061910;28;20576;-78
2022/10/27 09:42:39;;;;;;;7.00;1.70;;;17.10;99.90;;;;;;5056747;28;20293;-79
2022/10/27 09:45:14;;;;;;;3.83;1.73;;;17.20;99.90;;;;;;5052297;28;20210;-78
2022/10/27 09:47:44;;;;;;;5.70;1.85;;;17.30;99.90;;;;;;5052210;28;20193;-79
2022/10/27 09:50:19;;;;;;;2.55;1.42;;;17.50;99.90;;;;;;5052028;28;20214;-78
2022/10/27 09:52:46;;;;;;;2.97;1.65;;;17.60;99.90;;;;;;5052265;28;20190;-78
2022/10/27 09:55:13;;;;;;;3.70;1.35;;;17.60;99.90;;;;;;5054275;28;20237;-79
2022/10/27 09:57:42;;;;;;;6.23;1.60;;;17.70;99.90;;;;;;5052511;28;20202;-77
2022/10/27 10:00:24;;;;;;;5.80;1.35;;;17.70;99.90;;;;;;5053068;28;20309;-79
2022/10/27 10:03:02;;;;;;;6.22;1.58;;;17.80;99.90;;;;;;5053057;28;20283;-80
2022/10/27 10:05:35;;;;;;;4.57;1.90;;;17.90;99.90;;;;;;5052214;28;20252;-76
2022/10/27 10:08:14;;;;;;;6.53;1.88;;;17.90;99.90;;;;;;5063519;28;20245;-79
2022/10/27 10:10:54;;;;;;;3.17;1.60;;;17.90;99.90;;;;;;5071796;28;20598;-79
2022/10/27 10:13:21;;;;;;;7.05;1.92;;;18.00;99.90;;;;;;5071209;28;20204;-81
2022/10/27 10:15:48;;;;;;;4.43;1.73;;;18.00;99.90;;;;;;5072684;28;20284;-81
2022/10/27 10:18:24;;;;;;;1.92;1.50;;;18.00;99.90;;;;;;5071775;28;20755;-80
2022/10/27 10:20:59;;;;;;;3.85;1.60;;;18.10;99.90;;;;;;5052300;28;20185;-79
2022/10/27 10:23:29;;;;;;;5.38;1.83;;;18.10;99.90;;;;;;5052849;28;20200;-82
2022/10/27 10:25:57;;;;;;;6.25;1.95;;;18.10;99.90;;;;;;5053886;28;20186;-81
2022/10/27 10:28:32;;;;;;;4.97;1.77;;;18.10;99.90;;;;;;5072150;28;20311;-79
2022/10/27 10:31:01;;;;;;;2.22;1.27;;;18.10;99.90;;;;;;5061477;28;20209;-79
2022/10/27 10:33:39;;;;;;;4.93;1.73;;;18.20;99.90;;;;;;5052303;28;20204;-78
2022/10/27 10:36:24;;;;;;;3.17;1.55;;;18.20;99.90;;;;;;5052210;28;20196;-81
2022/10/27 10:38:54;;;;;;;4.53;1.30;;;18.30;99.90;;;;;;5051638;28;20240;-78
2022/10/27 10:41:21;;;;;;;3.88;1.40;;;18.30;99.90;;;;;;5053058;28;20292;-80
2022/10/27 10:44:06;;;;;;;4.93;1.58;;;18.40;99.90;;;;;;5052118;28;20212;-82
2022/10/27 10:46:34;;;;;;;3.75;1.67;;;18.40;99.90;;;;;;5051997;28;20204;-79
2022/10/27 10:49:02;;;;;;;5.18;1.60;;;18.40;99.90;;;;;;5052218;28;20610;-81
2022/10/27 10:51:32;;;;;;;2.88;1.48;;;18.40;99.90;;;;;;5052172;28;20198;-80
2022/10/27 10:54:03;;;;;;;4.28;1.42;;;18.40;99.90;;;;;;5060215;28;20660;-79
2022/10/27 10:56:32;;;;;;;5.13;1.67;;;18.40;99.90;;;;;;5068601;28;20206;-79
2022/10/27 10:59:07;;;;;;;3.25;1.60;;;18.50;99.90;;;;;;5051628;28;20228;-78
2022/10/27 11:01:47;;;;;;;4.78;1.90;;;18.50;99.90;;;;;;5063617;28;20208;-82
2022/10/27 11:04:16;;;;;;;3.20;1.55;;;18.50;99.90;;;;;;5072383;28;20192;-78
2022/10/27 11:07:00;;;;;;;2.92;1.40;;;18.50;99.90;;;;;;5071325;28;20225;-78
2022/10/27 11:09:31;;;;;;;7.05;2.08;;;18.60;99.90;;;;;;5072156;28;20186;-80
2022/10/27 11:12:01;;;;;;;3.97;1.25;;;18.70;99.90;;;;;;5070349;28;20283;-79
2022/10/27 11:14:29;;;;;;;4.70;1.40;;;18.80;99.90;;;;;;5071337;28;20208;-78
2022/10/27 11:17:03;;;;;;;3.80;1.75;;;18.80;99.90;;;;;;5065072;28;20724;-79
2022/10/27 11:19:33;;;;;;;5.03;1.50;;;18.80;99.90;;;;;;5071714;28;20764;-79
2022/10/27 11:22:05;;;;;;;2.80;1.40;;;18.80;99.90;;;;;;5071274;28;20208;-79
2022/10/27 11:24:49;;;;;;;3.92;1.30;;;18.80;99.90;;;;;;5058894;28;20483;-79
2022/10/27 11:27:22;;;;;;;3.92;1.48;;;18.90;99.90;;;;;;5055913;28;20200;-78
2022/10/27 11:29:59;;;;;;;6.40;1.80;;;18.90;99.90;;;;;;5064411;28;20198;-78
2022/10/27 11:32:32;;;;;;;4.68;1.60;;;18.90;99.90;;;;;;5052218;28;20201;-80
2022/10/27 11:35:06;;;;;;;7.15;1.88;;;18.90;99.90;;;;;;5051446;28;20242;-81
2022/10/27 11:37:40;;;;;;;6.75;1.75;;;18.80;99.90;;;;;;5071280;28;20561;-79
2022/10/27 11:40:14;;;;;;;4.13;1.80;;;18.80;99.90;;;;;;5071545;28;20221;-79
2022/10/27 11:42:48;;;;;;;5.07;1.88;;;18.80;99.90;;;;;;5056602;28;20281;-80
2022/10/27 11:45:20;;;;;;;4.63;1.80;;;18.80;99.90;;;;;;5052229;28;20201;-78
2022/10/27 11:47:53;;;;;;;3.10;1.40;;;18.80;99.90;;;;;;5056393;28;20292;-78
2022/10/27 11:50:27;;;;;;;7.10;1.80;;;18.80;99.90;;;;;;5065285;28;20631;-81
2022/10/27 11:52:58;;;;;;;7.18;1.77;;;18.80;99.90;;;;;;5075034;28;20185;-79
2022/10/27 11:55:31;;;;;;;8.43;2.10;;;18.70;99.90;;;;;;5075362;28;20213;-79
2022/10/27 11:58:05;;;;;;;5.38;2.20;;;18.70;99.90;;;;;;5072292;28;20205;-80
2022/10/27 12:00:38;;;;;;;4.90;1.70;;;18.60;99.90;;;;;;5059855;28;20692;-79
2022/10/27 12:03:37;;;;;;;4.88;1.67;;;18.50;99.90;;;;;;5072413;28;20201;-78
2022/10/27 12:06:12;;;;;;;4.25;1.77;;;18.50;99.90;;;;;;5055165;28;20205;-81
2022/10/27 12:08:49;;;;;;;4.28;1.88;;;18.40;99.90;;;;;;5055274;28;20209;-79
2022/10/27 12:11:24;;;;;;;4.43;1.98;;;18.40;99.90;;;;;;5054487;28;20189;-80
2022/10/27 12:13:59;;;;;;;3.10;1.90;;;18.20;99.90;;;;;;5055386;28;20284;-79
2022/10/27 12:16:34;;;;;;;11.02;2.78;;;18.20;99.90;;;;;;5055170;28;20578;-79
2022/10/27 12:19:05;;;;;;;5.85;2.13;;;18.10;99.90;;;;;;5055220;28;20221;-78
2022/10/27 12:21:40;;;;;;;5.20;2.53;;;18.10;99.90;;;;;;5054895;28;20182;-79
2022/10/27 12:24:16;;;;;;;8.13;2.63;;;18.00;99.90;;;;;;5055231;28;20194;-79
2022/10/27 12:26:47;;;;;;;4.57;1.70;;;18.00;99.90;;;;;;5054798;28;20185;-79
2022/10/27 12:29:17;;;;;;;5.28;2.05;;;18.00;99.90;;;;;;5055568;28;20186;-79
2022/10/27 12:31:51;;;;;;;4.45;1.70;;;18.00;99.90;;;;;;5053997;28;20617;-78
2022/10/27 12:34:21;;;;;;;6.38;2.10;;;18.00;99.90;;;;;;5054760;28;20211;-77
2022/10/27 12:36:53;;;;;;;7.43;2.20;;;18.00;99.90;;;;;;5071253;28;20219;-77
2022/10/27 12:39:25;;;;;;;4.85;2.08;;;18.00;99.90;;;;;;5074288;28;20220;-79
2022/10/27 12:42:00;;;;;;;4.05;1.90;;;18.10;99.90;;;;;;5075049;28;20193;-78
2022/10/27 12:44:40;;;;;;;3.88;2.00;;;18.10;99.90;;;;;;5074597;28;20569;-78
2022/10/27 12:47:26;;;;;;;5.40;2.22;;;18.10;99.90;;;;;;5054031;28;20198;-79
2022/10/27 12:50:03;;;;;;;5.45;2.08;;;18.20;99.90;;;;;;5054507;28;20213;-77
2022/10/27 12:52:33;;;;;;;4.30;2.10;;;18.30;99.90;;;;;;5053162;28;20293;-79
2022/10/27 12:55:17;;;;;;;5.47;2.25;;;18.30;99.90;;;;;;5054136;28;20225;-78
2022/10/27 12:57:51;;;;;;;2.70;1.98;;;18.30;99.90;;;;;;5054522;28;20204;-78